Time;durP1;ratioP1;P1;durP2;ratioP2;P2;SDS_P1;SDS_P2;PMS_P1;PMS_P2;Temp;Humidity;BMP_temperature;BMP_pressure;BME280_temperature;BME280_humidity;BME280_pressure;Samples;Min_cycle;Max_cycle;Signal;HPM_P1;HPM_P2
2022/12/21 00:01:11;;;;;;;41.63;33.23;;;9.30;1.00;;;;;;5026342;28;20025;-64
2022/12/21 00:03:37;;;;;;;44.03;35.60;;;9.40;1.00;;;;;;5035609;28;20033;-63
2022/12/21 00:06:04;;;;;;;40.87;33.40;;;9.30;1.00;;;;;;5034179;28;20033;-63
2022/12/21 00:08:34;;;;;;;39.63;32.90;;;9.40;1.00;;;;;;5035152;28;20494;-64
2022/12/21 00:11:00;;;;;;;40.70;32.07;;;9.40;1.00;;;;;;5016837;28;20080;-63
2022/12/21 00:13:26;;;;;;;47.30;35.63;;;9.40;1.00;;;;;;5011866;28;20050;-63
2022/12/21 00:16:06;;;;;;;42.67;35.10;;;9.30;1.00;;;;;;5024999;28;20309;-64
2022/12/21 00:18:33;;;;;;;43.37;33.50;;;9.20;1.00;;;;;;5034614;28;20017;-63
2022/12/21 00:21:00;;;;;;;44.03;33.23;;;9.10;1.00;;;;;;5033185;28;20025;-63
2022/12/21 00:23:27;;;;;;;40.33;33.13;;;9.10;1.00;;;;;;5033685;28;20433;-63
2022/12/21 00:25:52;;;;;;;43.93;34.23;;;9.10;1.00;;;;;;5018471;28;20030;-63
2022/12/21 00:28:18;;;;;;;43.50;34.20;;;9.20;1.00;;;;;;5015364;28;20041;-64
2022/12/21 00:30:44;;;;;;;44.33;34.83;;;9.10;1.00;;;;;;5018393;28;20486;-64
2022/12/21 00:33:10;;;;;;;44.50;35.67;;;8.90;1.00;;;;;;5035176;28;20212;-64
2022/12/21 00:35:36;;;;;;;51.57;39.73;;;9.10;1.00;;;;;;5034654;28;20463;-63
2022/12/21 00:38:01;;;;;;;42.90;34.07;;;9.10;1.00;;;;;;5034625;28;20036;-63
2022/12/21 00:40:27;;;;;;;49.93;39.20;;;9.10;1.00;;;;;;5034638;28;20033;-64
2022/12/21 00:42:53;;;;;;;49.23;36.83;;;8.90;1.00;;;;;;5034948;28;20205;-63
2022/12/21 00:45:19;;;;;;;41.03;33.47;;;9.10;1.00;;;;;;5032378;28;20059;-65
2022/12/21 00:47:45;;;;;;;45.93;35.97;;;9.00;1.00;;;;;;5033423;28;20033;-64
2022/12/21 00:50:11;;;;;;;49.80;36.03;;;9.10;1.00;;;;;;5034137;28;20519;-65
2022/12/21 00:52:36;;;;;;;42.80;34.27;;;9.00;1.00;;;;;;5033090;28;20124;-63
2022/12/21 00:55:08;;;;;;;49.77;37.90;;;9.00;1.00;;;;;;5033373;28;20029;-63
2022/12/21 00:57:34;;;;;;;50.47;39.43;;;9.00;1.00;;;;;;5049677;28;20464;-63
2022/12/21 01:00:00;;;;;;;48.17;35.83;;;8.80;1.00;;;;;;5032614;28;20113;-63
2022/12/21 01:02:25;;;;;;;47.93;37.10;;;9.00;1.00;;;;;;5034246;28;20061;-63
2022/12/21 01:04:51;;;;;;;45.27;34.97;;;8.90;1.00;;;;;;5030704;28;20117;-63
2022/12/21 01:07:17;;;;;;;44.40;35.13;;;8.80;1.00;;;;;;5014759;28;20033;-63
2022/12/21 01:09:42;;;;;;;50.70;38.70;;;8.90;1.00;;;;;;5014877;28;20444;-63
2022/12/21 01:12:08;;;;;;;46.23;36.53;;;8.90;1.00;;;;;;5034089;28;20048;-63
2022/12/21 01:14:33;;;;;;;51.13;37.93;;;9.00;1.00;;;;;;5033658;28;20053;-63
2022/12/21 01:16:59;;;;;;;52.40;37.17;;;8.90;1.00;;;;;;5029756;28;20475;-63
2022/12/21 01:19:25;;;;;;;48.00;34.47;;;8.90;1.00;;;;;;5032601;28;20434;-63
2022/12/21 01:21:50;;;;;;;49.40;35.00;;;8.90;1.00;;;;;;5021980;28;20088;-63
2022/12/21 01:24:16;;;;;;;49.77;35.03;;;8.70;1.00;;;;;;5014114;28;20052;-63
2022/12/21 01:26:41;;;;;;;52.10;37.97;;;8.90;1.00;;;;;;5020102;28;20063;-63
2022/12/21 01:29:11;;;;;;;44.93;31.93;;;8.90;1.00;;;;;;5033946;28;20043;-63
2022/12/21 01:31:39;;;;;;;44.33;33.50;;;8.90;1.00;;;;;;5029769;28;20034;-63
2022/12/21 01:34:05;;;;;;;44.10;34.20;;;8.80;1.00;;;;;;5014122;28;20071;-63
2022/12/21 01:36:31;;;;;;;50.17;35.90;;;8.90;1.00;;;;;;5014123;28;20402;-63
2022/12/21 01:38:57;;;;;;;46.07;33.70;;;9.00;1.00;;;;;;5015339;28;20033;-63
2022/12/21 01:41:32;;;;;;;52.13;36.53;;;8.90;1.00;;;;;;5012334;28;20120;-63
2022/12/21 01:43:59;;;;;;;49.90;38.10;;;8.90;1.00;;;;;;5013594;28;20040;-63
2022/12/21 01:46:34;;;;;;;46.83;33.87;;;9.00;1.00;;;;;;5013570;28;20041;-63
2022/12/21 01:49:08;;;;;;;43.60;33.90;;;8.70;1.00;;;;;;5033385;28;20029;-63
2022/12/21 01:51:37;;;;;;;45.80;35.08;;;8.50;1.00;;;;;;5018832;28;20038;-63
2022/12/21 01:54:13;;;;;;;52.67;37.97;;;8.70;1.00;;;;;;5013773;28;20049;-63
2022/12/21 01:56:40;;;;;;;49.37;37.03;;;8.70;1.00;;;;;;5012762;28;20379;-63
2022/12/21 01:59:29;;;;;;;50.97;37.57;;;8.90;1.00;;;;;;5028222;28;20021;-63
2022/12/21 02:01:57;;;;;;;44.67;33.67;;;9.00;1.00;;;;;;5033483;28;20026;-63
2022/12/21 02:04:23;;;;;;;45.07;32.53;;;8.90;1.00;;;;;;5025421;28;20030;-63
2022/12/21 02:06:58;;;;;;;41.80;32.63;;;8.90;1.00;;;;;;5012318;28;20033;-63
2022/12/21 02:09:29;;;;;;;41.73;33.17;;;8.90;1.00;;;;;;5012619;28;20025;-63
2022/12/21 02:11:57;;;;;;;51.17;36.73;;;8.90;1.00;;;;;;5029590;28;20402;-63
2022/12/21 02:14:25;;;;;;;46.67;34.80;;;9.00;1.00;;;;;;5032726;28;20061;-63
2022/12/21 02:17:25;;;;;;;43.13;31.27;;;9.00;1.00;;;;;;5012918;28;20227;-64
2022/12/21 02:20:06;;;;;;;44.63;34.27;;;8.80;1.00;;;;;;5015882;28;20096;-63
2022/12/21 02:22:53;;;;;;;46.40;35.23;;;8.70;1.00;;;;;;5033401;28;20041;-63
2022/12/21 02:25:54;;;;;;;45.13;32.63;;;8.90;1.00;;;;;;5027383;28;20109;-62
2022/12/21 02:28:47;;;;;;;44.60;33.37;;;9.00;1.00;;;;;;5010102;28;20117;-62
2022/12/21 02:31:45;;;;;;;46.00;34.73;;;9.00;1.00;;;;;;5021464;28;20080;-63
2022/12/21 02:34:33;;;;;;;46.57;35.80;;;9.00;1.00;;;;;;5012148;28;20034;-63
2022/12/21 02:37:19;;;;;;;49.67;37.83;;;9.10;1.00;;;;;;5013087;28;20037;-62
2022/12/21 02:39:58;;;;;;;53.47;39.87;;;9.10;1.00;;;;;;5017153;28;20037;-63
2022/12/21 02:46:01;;;;;;;50.67;38.63;;;9.00;1.00;;;;;;5020895;28;20079;-63
2022/12/21 02:48:52;;;;;;;49.03;36.97;;;9.00;1.00;;;;;;5012492;28;20095;-62
2022/12/21 02:51:29;;;;;;;50.83;39.07;;;8.90;1.00;;;;;;5028390;28;20387;-62
2022/12/21 02:53:55;;;;;;;44.73;33.93;;;8.70;1.00;;;;;;5032533;28;20032;-63
2022/12/21 02:56:21;;;;;;;44.87;34.27;;;8.80;1.00;;;;;;5018232;28;20084;-62
2022/12/21 02:58:47;;;;;;;42.97;33.93;;;8.80;1.00;;;;;;5012389;28;20034;-63
2022/12/21 03:01:31;;;;;;;46.17;34.37;;;8.90;1.00;;;;;;5012522;28;20038;-63
2022/12/21 03:04:28;;;;;;;44.73;33.50;;;8.80;1.00;;;;;;5012308;28;20030;-62
2022/12/21 03:07:28;;;;;;;41.30;32.20;;;8.80;1.00;;;;;;5028502;28;20068;-63
2022/12/21 03:10:08;;;;;;;43.23;34.57;;;8.60;1.00;;;;;;5031569;28;20029;-63
2022/12/21 03:12:49;;;;;;;48.53;37.37;;;8.60;1.00;;;;;;5012522;28;20038;-63
2022/12/21 03:15:41;;;;;;;46.73;35.47;;;8.80;1.00;;;;;;5012461;28;20046;-63
2022/12/21 03:18:21;;;;;;;49.60;36.87;;;8.90;1.00;;;;;;5032183;28;20029;-63
2022/12/21 03:20:59;;;;;;;48.53;36.07;;;8.90;1.00;;;;;;5030258;28;20026;-63
2022/12/21 03:23:35;;;;;;;44.87;34.27;;;8.80;1.00;;;;;;5031809;28;20033;-63
2022/12/21 03:26:28;;;;;;;37.40;31.27;;;8.70;1.00;;;;;;5018878;28;20034;-63
2022/12/21 03:28:54;;;;;;;43.50;34.43;;;8.70;1.00;;;;;;5012414;28;20034;-63
2022/12/21 03:31:25;;;;;;;41.23;32.67;;;8.70;1.00;;;;;;5025397;28;20038;-63
2022/12/21 03:34:05;;;;;;;43.70;33.57;;;8.60;1.00;;;;;;5030033;28;20476;-63
2022/12/21 03:36:39;;;;;;;45.27;34.47;;;8.60;1.00;;;;;;5032262;28;20064;-63
2022/12/21 03:39:12;;;;;;;47.53;36.70;;;8.50;1.00;;;;;;5026953;28;20125;-64
2022/12/21 03:41:49;;;;;;;45.93;36.10;;;8.40;1.00;;;;;;5012301;28;20079;-63
2022/12/21 03:44:21;;;;;;;45.43;33.60;;;8.50;1.00;;;;;;5016974;28;20036;-63
2022/12/21 03:46:59;;;;;;;51.63;39.20;;;8.50;1.00;;;;;;5031834;28;20029;-63
2022/12/21 03:49:40;;;;;;;54.20;40.67;;;8.50;1.00;;;;;;5025030;28;20059;-63
2022/12/21 03:52:20;;;;;;;49.07;36.90;;;8.70;1.00;;;;;;5011680;28;20045;-63
2022/12/21 03:54:59;;;;;;;49.43;36.67;;;8.60;1.00;;;;;;5015328;28;20017;-63
2022/12/21 03:57:26;;;;;;;51.13;39.93;;;8.70;1.00;;;;;;5031841;28;20414;-63
2022/12/21 03:59:55;;;;;;;49.00;38.43;;;8.50;1.00;;;;;;5029670;28;20026;-63
2022/12/21 04:02:29;;;;;;;50.57;37.60;;;8.60;1.00;;;;;;5031805;28;20114;-63
2022/12/21 04:05:18;;;;;;;44.85;34.63;;;8.70;1.00;;;;;;5030156;28;20507;-65
2022/12/21 04:07:47;;;;;;;49.87;37.97;;;8.80;1.00;;;;;;5012099;28;20030;-63
2022/12/21 04:10:15;;;;;;;46.87;36.27;;;8.70;1.00;;;;;;5012175;28;20199;-63
2022/12/21 04:12:41;;;;;;;55.00;41.77;;;8.50;1.00;;;;;;5011928;28;20053;-63
2022/12/21 04:15:08;;;;;;;51.10;39.50;;;8.50;1.00;;;;;;5011996;28;20594;-63
2022/12/21 04:17:34;;;;;;;56.43;43.30;;;8.60;1.00;;;;;;5011210;28;20484;-63
2022/12/21 04:20:00;;;;;;;50.37;39.53;;;8.40;1.00;;;;;;5010941;28;20036;-63
2022/12/21 04:41:07;;;;;;;50.40;39.90;;;8.70;1.00;;;;;;5022586;28;20057;-63
2022/12/21 04:43:39;;;;;;;53.27;39.77;;;8.60;1.00;;;;;;5034659;28;20037;-63
2022/12/21 04:46:08;;;;;;;51.37;38.07;;;8.60;1.00;;;;;;5025269;28;20022;-63
2022/12/21 04:52:08;;;;;;;46.80;36.77;;;8.70;1.00;;;;;;5014431;28;20111;-63
2022/12/21 04:54:33;;;;;;;49.10;37.37;;;8.60;1.00;;;;;;5013283;28;20361;-63
2022/12/21 04:56:59;;;;;;;49.20;37.47;;;8.50;1.00;;;;;;5019584;28;20032;-63
2022/12/21 04:59:25;;;;;;;52.73;39.20;;;8.70;1.00;;;;;;5014846;28;20076;-63
2022/12/21 05:01:50;;;;;;;51.33;36.93;;;8.80;1.00;;;;;;5027525;28;20360;-63
2022/12/21 05:04:16;;;;;;;46.47;35.50;;;8.60;1.00;;;;;;5033695;28;20387;-63
2022/12/21 05:06:42;;;;;;;47.07;35.77;;;8.60;1.00;;;;;;5022746;28;20026;-63
2022/12/21 05:09:07;;;;;;;52.70;38.23;;;8.40;1.00;;;;;;5014322;28;20096;-63
2022/12/21 05:11:34;;;;;;;48.67;36.93;;;8.60;1.00;;;;;;5024650;28;20065;-63
2022/12/21 05:13:59;;;;;;;50.33;37.33;;;8.70;1.00;;;;;;5033779;28;20049;-63
2022/12/21 05:16:25;;;;;;;46.17;35.20;;;8.50;1.00;;;;;;5033419;28;20036;-63
2022/12/21 05:18:56;;;;;;;50.63;37.23;;;8.60;1.00;;;;;;5033755;28;20879;-63
2022/12/21 05:21:21;;;;;;;54.00;40.77;;;8.60;1.00;;;;;;5018199;28;20104;-63
2022/12/21 05:23:47;;;;;;;51.13;38.87;;;8.60;1.00;;;;;;5015218;28;20057;-63
2022/12/21 05:26:13;;;;;;;46.80;38.23;;;8.60;1.00;;;;;;5029016;28;20075;-63
2022/12/21 05:28:39;;;;;;;53.00;38.83;;;8.70;1.00;;;;;;5034696;28;20025;-63
2022/12/21 05:31:06;;;;;;;50.37;37.23;;;8.70;1.00;;;;;;5032096;28;20430;-63
2022/12/21 05:33:32;;;;;;;50.07;38.97;;;8.70;1.00;;;;;;5032076;28;20025;-63
2022/12/21 05:36:02;;;;;;;54.13;42.00;;;8.70;1.00;;;;;;5033038;28;20029;-62
2022/12/21 05:38:27;;;;;;;51.63;42.03;;;8.70;1.00;;;;;;5033669;28;20028;-63
2022/12/21 05:40:53;;;;;;;52.03;41.97;;;8.80;1.00;;;;;;5023671;28;20026;-62
2022/12/21 05:43:18;;;;;;;48.70;38.80;;;8.80;1.00;;;;;;5013869;28;20129;-62
2022/12/21 05:45:44;;;;;;;52.87;41.20;;;8.80;1.00;;;;;;5016671;28;20028;-63
2022/12/21 05:48:10;;;;;;;51.17;40.83;;;8.80;1.00;;;;;;5033545;28;20029;-63
2022/12/21 05:50:38;;;;;;;53.00;40.50;;;8.70;1.00;;;;;;5029790;28;20314;-63
2022/12/21 05:53:04;;;;;;;52.40;42.93;;;8.80;1.00;;;;;;5013487;28;20456;-63
2022/12/21 05:55:30;;;;;;;50.93;38.10;;;8.90;1.00;;;;;;5015603;28;20108;-63
2022/12/21 05:57:56;;;;;;;54.60;41.90;;;8.90;1.00;;;;;;5033272;28;20383;-63
2022/12/21 06:00:21;;;;;;;51.40;40.43;;;8.80;1.00;;;;;;5026049;28;20041;-63
2022/12/21 06:02:47;;;;;;;51.47;39.60;;;8.90;1.00;;;;;;5014252;28;20026;-63
2022/12/21 06:05:13;;;;;;;53.93;41.03;;;8.90;1.00;;;;;;5018180;28;20096;-63
2022/12/21 06:07:39;;;;;;;47.87;38.87;;;9.00;1.00;;;;;;5033198;28;20034;-62
2022/12/21 06:10:05;;;;;;;53.80;37.47;;;8.90;1.00;;;;;;5031330;28;20067;-63
2022/12/21 06:12:32;;;;;;;44.77;35.87;;;9.00;1.00;;;;;;5033684;28;20422;-63
2022/12/21 06:14:58;;;;;;;41.47;32.70;;;9.00;1.00;;;;;;5030705;28;20045;-63
2022/12/21 06:17:26;;;;;;;45.13;36.70;;;8.90;1.00;;;;;;5013572;28;20096;-63
2022/12/21 06:19:52;;;;;;;46.73;37.17;;;8.90;1.00;;;;;;5013493;28;20030;-63
2022/12/21 06:22:18;;;;;;;43.83;36.13;;;8.90;1.00;;;;;;5013513;28;20112;-63
2022/12/21 06:24:43;;;;;;;47.67;37.13;;;9.00;1.00;;;;;;5013329;28;20029;-63
2022/12/21 06:27:09;;;;;;;44.90;34.03;;;8.80;1.00;;;;;;5033011;28;20470;-63
2022/12/21 06:29:35;;;;;;;49.00;36.23;;;9.00;1.00;;;;;;5032053;28;20461;-63
2022/12/21 06:32:00;;;;;;;48.70;36.23;;;9.00;1.00;;;;;;5012533;28;20076;-63
2022/12/21 06:34:26;;;;;;;46.00;37.67;;;9.00;1.00;;;;;;5012921;28;20021;-63
2022/12/21 06:36:52;;;;;;;49.93;38.40;;;9.00;1.00;;;;;;5031467;28;20039;-63
2022/12/21 06:39:18;;;;;;;48.77;38.63;;;9.00;1.00;;;;;;5030643;28;20025;-62
2022/12/21 06:41:43;;;;;;;46.97;36.67;;;9.00;1.00;;;;;;5032467;28;20030;-63
2022/12/21 06:44:12;;;;;;;50.37;39.27;;;9.10;1.00;;;;;;5029502;28;20014;-62
2022/12/21 06:46:38;;;;;;;46.83;36.70;;;9.10;1.00;;;;;;5032354;28;20036;-63
2022/12/21 06:49:16;;;;;;;51.17;38.50;;;9.10;1.00;;;;;;5031818;28;20017;-62
2022/12/21 06:51:41;;;;;;;52.10;39.47;;;9.10;1.00;;;;;;5029071;28;20376;-62
2022/12/21 06:54:10;;;;;;;51.77;38.60;;;9.10;1.00;;;;;;5022079;28;20084;-63
2022/12/21 06:56:35;;;;;;;46.53;36.17;;;9.10;1.00;;;;;;5015434;28;20030;-62
2022/12/21 06:59:26;;;;;;;41.13;34.03;;;9.00;1.00;;;;;;5012496;28;20503;-63
2022/12/21 07:01:52;;;;;;;43.37;33.70;;;9.00;1.00;;;;;;5029695;28;20109;-62
2022/12/21 07:04:17;;;;;;;44.23;33.30;;;9.10;1.00;;;;;;5032320;28;20056;-63
2022/12/21 07:06:43;;;;;;;39.73;33.23;;;9.00;1.00;;;;;;5024125;28;20422;-63
2022/12/21 07:09:11;;;;;;;48.63;37.27;;;9.00;1.00;;;;;;5012282;28;20424;-63
2022/12/21 07:12:05;;;;;;;41.17;33.10;;;9.10;1.00;;;;;;5012468;28;20026;-62
2022/12/21 07:14:30;;;;;;;43.43;34.90;;;9.10;1.00;;;;;;5011303;28;20038;-62
2022/12/21 07:16:56;;;;;;;49.43;37.70;;;9.20;1.00;;;;;;5016956;28;20033;-62
2022/12/21 07:19:22;;;;;;;48.47;37.93;;;9.20;1.00;;;;;;5030221;28;20419;-62
2022/12/21 07:21:47;;;;;;;45.70;36.80;;;9.20;1.00;;;;;;5032024;28;20025;-62
2022/12/21 07:24:13;;;;;;;46.50;36.97;;;9.20;1.00;;;;;;5025728;28;20025;-62
2022/12/21 07:26:38;;;;;;;46.03;36.93;;;9.30;1.00;;;;;;5012043;28;20037;-62
2022/12/21 07:29:04;;;;;;;49.17;38.00;;;9.20;1.00;;;;;;5016667;28;20021;-62
2022/12/21 07:31:30;;;;;;;50.40;37.10;;;9.20;1.00;;;;;;5030197;28;20057;-62
2022/12/21 07:33:55;;;;;;;49.83;38.03;;;9.20;1.00;;;;;;5032150;28;20026;-62
2022/12/21 07:36:21;;;;;;;41.97;34.63;;;9.30;1.00;;;;;;5016901;28;20484;-62
2022/12/21 07:38:47;;;;;;;42.57;35.27;;;9.20;1.00;;;;;;5011958;28;20049;-63
2022/12/21 07:41:15;;;;;;;44.23;33.97;;;9.20;1.00;;;;;;5011939;28;20087;-63
2022/12/21 07:43:41;;;;;;;45.00;36.70;;;9.20;1.00;;;;;;5012056;28;20030;-62
2022/12/21 07:46:07;;;;;;;49.47;38.30;;;9.20;1.00;;;;;;5013583;28;20099;-62
2022/12/21 07:48:34;;;;;;;52.17;41.63;;;9.30;1.00;;;;;;5011840;28;20127;-62
2022/12/21 07:51:28;;;;;;;48.00;38.10;;;9.30;1.00;;;;;;5012148;28;20028;-62
2022/12/21 07:53:53;;;;;;;52.70;38.23;;;9.20;1.00;;;;;;5024951;28;20026;-62
2022/12/21 07:56:19;;;;;;;50.73;38.50;;;9.20;1.00;;;;;;5012894;28;20041;-63
2022/12/21 07:59:34;;;;;;;47.60;38.53;;;9.20;1.00;;;;;;5016603;28;20037;-62
2022/12/21 08:02:07;;;;;;;46.97;37.58;;;9.10;1.00;;;;;;5035267;28;20057;-62
2022/12/21 08:04:33;;;;;;;47.83;38.13;;;9.20;1.00;;;;;;5020608;28;20499;-62
2022/12/21 08:06:58;;;;;;;42.43;34.83;;;9.30;1.00;;;;;;5015729;28;20033;-65
2022/12/21 08:09:24;;;;;;;40.10;32.53;;;9.10;1.00;;;;;;5024291;28;20025;-62
2022/12/21 08:11:49;;;;;;;44.83;34.27;;;9.10;1.00;;;;;;5035409;28;20045;-63
2022/12/21 08:14:21;;;;;;;38.70;31.65;;;9.20;1.00;;;;;;5026711;28;20399;-62
2022/12/21 08:16:55;;;;;;;41.10;33.20;;;9.00;1.00;;;;;;5015513;28;20529;-62
2022/12/21 08:19:21;;;;;;;39.70;31.65;;;9.10;1.00;;;;;;5031442;28;20459;-62
2022/12/21 08:21:47;;;;;;;40.50;33.60;;;8.80;1.00;;;;;;5023766;28;20117;-62
2022/12/21 08:24:13;;;;;;;42.57;32.67;;;8.90;1.00;;;;;;5029584;28;20057;-62
2022/12/21 08:26:38;;;;;;;48.83;35.53;;;9.10;1.00;;;;;;5034947;28;20082;-62
2022/12/21 08:29:05;;;;;;;44.80;34.43;;;8.90;1.00;;;;;;5034405;28;20515;-62
2022/12/21 08:31:31;;;;;;;46.80;35.95;;;9.00;1.00;;;;;;5029059;28;20317;-61
2022/12/21 08:33:57;;;;;;;46.10;36.07;;;9.10;1.00;;;;;;5023146;28;20029;-63
2022/12/21 08:36:24;;;;;;;46.07;36.50;;;9.30;1.00;;;;;;5028561;28;20040;-64
2022/12/21 08:38:51;;;;;;;45.93;36.37;;;9.30;1.00;;;;;;5031682;28;20057;-66
2022/12/21 08:41:17;;;;;;;45.37;35.90;;;9.30;1.00;;;;;;5028457;28;20029;-64
2022/12/21 08:43:43;;;;;;;43.07;34.57;;;9.40;1.00;;;;;;5034464;28;20021;-67
2022/12/21 08:46:10;;;;;;;45.13;33.97;;;9.40;1.00;;;;;;5021286;28;20171;-64
2022/12/21 08:48:36;;;;;;;39.57;34.03;;;9.40;1.00;;;;;;5014363;28;20053;-62
2022/12/21 08:51:03;;;;;;;41.22;33.45;;;9.30;1.00;;;;;;5025072;28;20030;-65
2022/12/21 08:53:29;;;;;;;44.63;34.22;;;9.30;1.00;;;;;;5026330;28;20034;-65
2022/12/21 08:55:55;;;;;;;49.57;36.83;;;9.40;1.00;;;;;;5024592;28;20034;-68
2022/12/21 08:58:22;;;;;;;42.53;36.27;;;9.50;1.00;;;;;;5033805;28;20021;-72
2022/12/21 09:00:51;;;;;;;49.03;37.17;;;9.60;1.00;;;;;;5023275;28;20026;-65
2022/12/21 09:03:16;;;;;;;42.10;35.33;;;9.60;1.00;;;;;;5014604;28;20026;-70
2022/12/21 09:05:42;;;;;;;45.33;33.77;;;9.70;1.00;;;;;;5017701;28;20494;-57
2022/12/21 09:08:08;;;;;;;40.63;32.15;;;9.60;1.00;;;;;;5013503;28;20036;-65
2022/12/21 09:10:34;;;;;;;44.08;33.40;;;9.50;1.00;;;;;;5032335;28;20488;-67
2022/12/21 09:13:01;;;;;;;45.75;35.67;;;9.40;1.00;;;;;;5023202;28;20041;-68
2022/12/21 09:15:27;;;;;;;42.03;34.85;;;9.60;1.00;;;;;;5018604;28;20087;-68
2022/12/21 09:17:53;;;;;;;41.65;32.58;;;9.60;1.00;;;;;;5033722;28;20033;-58
2022/12/21 09:20:19;;;;;;;40.25;30.95;;;9.60;1.00;;;;;;5029861;28;20034;-71
2022/12/21 09:22:44;;;;;;;40.47;33.15;;;9.50;1.00;;;;;;5014417;28;20030;-68
2022/12/21 09:25:10;;;;;;;38.03;32.72;;;9.60;1.00;;;;;;5014789;28;20038;-68
2022/12/21 09:27:47;;;;;;;42.03;34.00;;;9.60;1.00;;;;;;5013905;28;20034;-68
2022/12/21 09:30:13;;;;;;;41.33;33.17;;;9.70;1.00;;;;;;5031135;28;20037;-68
2022/12/21 09:32:39;;;;;;;40.97;32.80;;;9.80;1.00;;;;;;5033405;28;20474;-67
2022/12/21 09:35:05;;;;;;;33.88;28.63;;;9.60;1.00;;;;;;5031664;28;20052;-59
2022/12/21 09:37:30;;;;;;;38.08;30.23;;;9.80;1.00;;;;;;5033737;28;20041;-60
2022/12/21 09:39:56;;;;;;;37.90;31.13;;;9.90;1.00;;;;;;5031583;28;20125;-60
2022/12/21 09:43:09;;;;;;;39.33;28.52;;;9.90;1.00;;;;;;5031240;28;20022;-69
2022/12/21 09:45:49;;;;;;;38.25;30.13;;;9.90;1.00;;;;;;4995968;28;20042;-76
2022/12/21 09:48:40;;;;;;;35.53;29.33;;;10.10;1.00;;;;;;5033301;28;20391;-67
2022/12/21 09:51:10;;;;;;;31.63;25.48;;;10.40;1.00;;;;;;5031669;28;20061;-66
2022/12/21 09:53:54;;;;;;;33.30;27.52;;;10.40;1.00;;;;;;5032746;28;20033;-66
2022/12/21 09:56:25;;;;;;;33.22;25.60;;;10.20;1.00;;;;;;5032434;28;20033;-66
2022/12/21 09:58:53;;;;;;;28.27;23.73;;;10.50;1.00;;;;;;5018701;28;20452;-64
2022/12/21 10:01:37;;;;;;;29.27;24.17;;;10.40;1.00;;;;;;5013461;28;20026;-66
2022/12/21 10:04:18;;;;;;;31.65;25.95;;;10.30;1.00;;;;;;5012980;28;20041;-65
2022/12/21 10:06:50;;;;;;;31.65;25.35;;;10.20;1.00;;;;;;5019356;28;20033;-65
2022/12/21 10:09:33;;;;;;;34.13;26.58;;;9.90;1.00;;;;;;5026208;28;20068;-53
2022/12/21 10:12:15;;;;;;;33.47;24.80;;;10.10;1.00;;;;;;5032928;28;20073;-56
2022/12/21 10:14:49;;;;;;;32.92;25.27;;;10.10;1.00;;;;;;5027054;28;20042;-53
2022/12/21 10:17:21;;;;;;;30.90;26.23;;;10.10;1.00;;;;;;5013231;28;20511;-62
2022/12/21 10:20:08;;;;;;;30.80;25.20;;;10.10;1.00;;;;;;5012179;28;20108;-64
2022/12/21 10:22:42;;;;;;;29.73;24.73;;;10.00;1.00;;;;;;5013285;28;20032;-62
2022/12/21 10:25:19;;;;;;;30.10;24.42;;;10.10;1.00;;;;;;5031949;28;20033;-53
2022/12/21 10:28:12;;;;;;;28.90;21.67;;;10.30;1.00;;;;;;5032493;28;20041;-55
2022/12/21 10:30:40;;;;;;;30.45;23.90;;;10.00;1.00;;;;;;5032562;28;20569;-51
2022/12/21 10:33:11;;;;;;;31.15;23.50;;;9.70;1.00;;;;;;5029999;28;20065;-60
2022/12/21 10:35:39;;;;;;;29.08;23.50;;;9.80;1.00;;;;;;5030366;28;20479;-61
2022/12/21 10:38:19;;;;;;;28.90;22.52;;;10.10;1.00;;;;;;5032559;28;20060;-60
2022/12/21 10:40:52;;;;;;;30.15;24.05;;;10.30;1.00;;;;;;5032369;28;20424;-61
2022/12/21 10:43:20;;;;;;;27.63;23.20;;;10.10;1.00;;;;;;5032489;28;20123;-63
2022/12/21 10:45:46;;;;;;;29.05;24.95;;;10.30;1.00;;;;;;5018749;28;20491;-64
2022/12/21 10:48:11;;;;;;;32.60;23.73;;;10.30;1.00;;;;;;5012474;28;20060;-60
2022/12/21 10:50:42;;;;;;;31.33;24.77;;;10.40;1.00;;;;;;5023074;28;20065;-62
2022/12/21 10:53:25;;;;;;;28.48;22.67;;;10.10;1.00;;;;;;5032937;28;20503;-69
2022/12/21 10:55:54;;;;;;;25.02;20.58;;;10.30;1.00;;;;;;5031840;28;20557;-60
2022/12/21 10:58:31;;;;;;;26.52;21.80;;;10.40;1.00;;;;;;5032094;28;20037;-71
2022/12/21 11:01:44;;;;;;;26.20;21.10;;;10.30;1.00;;;;;;5020548;28;20022;-72
2022/12/21 11:04:23;;;;;;;30.17;23.67;;;10.20;1.00;;;;;;5024737;28;20021;-65
2022/12/21 11:07:04;;;;;;;24.02;21.38;;;10.40;1.00;;;;;;5032215;28;20029;-74
2022/12/21 11:09:32;;;;;;;25.92;21.50;;;10.30;1.00;;;;;;5031121;28;20056;-65
2022/12/21 11:12:14;;;;;;;29.50;23.75;;;10.30;1.00;;;;;;5014690;28;20045;-66
2022/12/21 11:14:39;;;;;;;35.22;23.05;;;10.60;1.00;;;;;;5015504;28;20543;-68
2022/12/21 11:17:05;;;;;;;93.28;27.45;;;10.60;1.00;;;;;;5032852;28;20075;-68
2022/12/21 11:19:34;;;;;;;25.73;20.83;;;10.70;1.00;;;;;;5029408;28;20025;-71
2022/12/21 11:22:00;;;;;;;25.27;20.33;;;10.60;1.00;;;;;;5017194;28;20029;-75
2022/12/21 11:24:33;;;;;;;26.27;19.75;;;10.70;1.00;;;;;;5014261;28;20390;-58
2022/12/21 11:27:11;;;;;;;21.90;18.25;;;10.80;1.00;;;;;;5031653;28;20395;-67
2022/12/21 11:29:52;;;;;;;28.45;20.60;;;10.80;1.00;;;;;;5016154;28;20017;-67
2022/12/21 11:32:19;;;;;;;24.60;19.98;;;10.90;1.00;;;;;;5036562;28;20037;-68
2022/12/21 11:34:48;;;;;;;27.48;22.48;;;10.80;1.00;;;;;;5032112;28;20022;-67
2022/12/21 11:37:32;;;;;;;25.65;20.75;;;11.00;1.00;;;;;;5035957;28;20036;-68
2022/12/21 11:40:06;;;;;;;29.48;22.38;;;11.10;1.00;;;;;;5034647;28;20018;-67
2022/12/21 11:42:32;;;;;;;28.30;21.77;;;11.10;1.00;;;;;;5036549;28;20052;-67
2022/12/21 11:45:22;;;;;;;24.95;19.52;;;10.90;1.00;;;;;;5035998;28;21311;-67
2022/12/21 11:48:05;;;;;;;27.00;19.77;;;10.90;1.00;;;;;;5019470;28;20440;-68
2022/12/21 11:50:59;;;;;;;26.85;20.23;;;10.80;1.00;;;;;;5016478;28;20037;-68
2022/12/21 11:54:05;;;;;;;24.52;19.40;;;11.00;1.00;;;;;;5014791;28;20034;-68
2022/12/21 11:56:50;;;;;;;22.88;19.02;;;10.80;1.00;;;;;;5017122;28;20026;-68
2022/12/21 11:59:31;;;;;;;22.92;18.70;;;11.00;1.00;;;;;;5016372;28;20438;-69
2022/12/21 12:01:59;;;;;;;23.48;18.83;;;11.20;1.00;;;;;;5014753;28;20052;-68
2022/12/21 12:05:10;;;;;;;20.58;17.75;;;11.20;1.00;;;;;;5016214;28;20088;-67
2022/12/21 12:07:59;;;;;;;21.17;17.30;;;11.10;1.00;;;;;;5025496;28;20037;-66
2022/12/21 12:10:37;;;;;;;20.48;16.63;;;11.30;1.00;;;;;;5034038;28;20553;-68
2022/12/21 12:13:12;;;;;;;23.00;18.88;;;11.20;1.00;;;;;;5035182;28;20068;-68
2022/12/21 12:16:03;;;;;;;24.30;19.60;;;11.20;1.00;;;;;;5015733;28;20065;-68
2022/12/21 12:18:40;;;;;;;20.88;17.30;;;11.40;1.00;;;;;;5030766;28;20041;-68
2022/12/21 12:21:32;;;;;;;28.00;20.88;;;11.40;1.00;;;;;;5023840;28;20476;-68
2022/12/21 12:24:16;;;;;;;23.70;18.85;;;11.40;1.00;;;;;;5015531;28;20018;-68
2022/12/21 12:27:14;;;;;;;23.73;19.15;;;11.50;1.00;;;;;;5017565;28;20034;-68
2022/12/21 12:29:55;;;;;;;23.17;18.70;;;11.30;1.00;;;;;;5033442;28;20487;-68
2022/12/21 12:33:00;;;;;;;24.98;20.10;;;11.20;1.00;;;;;;5015305;28;20555;-64
2022/12/21 12:35:43;;;;;;;31.48;22.92;;;11.10;1.00;;;;;;5015021;28;20133;-64
2022/12/21 12:38:39;;;;;;;25.90;19.45;;;11.20;1.00;;;;;;5015085;28;20033;-64
2022/12/21 12:41:04;;;;;;;;;;;11.20;1.00;;;;;;5023369;28;20053;-64
2022/12/21 12:43:49;;;;;;;26.90;21.25;;;11.20;1.00;;;;;;5034769;28;19940;-64
2022/12/21 12:46:26;;;;;;;25.92;20.92;;;11.20;1.00;;;;;;5035039;28;20489;-64
2022/12/21 12:49:37;;;;;;;27.90;23.45;;;11.10;1.00;;;;;;5033351;28;20088;-64
2022/12/21 12:52:21;;;;;;;34.90;22.63;;;11.20;1.00;;;;;;5017341;28;20064;-64
2022/12/21 12:55:27;;;;;;;30.25;22.42;;;11.20;1.00;;;;;;5014698;28;20028;-64
2022/12/21 12:58:15;;;;;;;29.85;22.83;;;11.20;1.00;;;;;;5015228;28;20033;-64
2022/12/21 13:01:05;;;;;;;29.73;22.48;;;11.30;1.00;;;;;;5013467;28;20156;-64
2022/12/21 13:04:22;;;;;;;26.17;22.10;;;11.50;1.00;;;;;;5010859;28;20049;-64
2022/12/21 13:07:08;;;;;;;27.35;22.02;;;11.60;1.00;;;;;;5014188;28;20133;-64
2022/12/21 13:09:37;;;;;;;26.00;22.33;;;11.60;1.00;;;;;;5014221;28;20375;-64
2022/12/21 13:12:18;;;;;;;33.85;23.40;;;11.30;1.00;;;;;;5014378;28;20073;-64
2022/12/21 13:15:08;;;;;;;23.60;19.40;;;11.30;1.00;;;;;;5028318;28;20088;-63
2022/12/21 13:17:38;;;;;;;22.08;18.23;;;11.20;1.00;;;;;;5034708;28;20459;-62
2022/12/21 13:20:05;;;;;;;23.20;18.33;;;11.10;1.00;;;;;;5032671;28;20424;-61
2022/12/21 13:22:36;;;;;;;22.35;17.05;;;11.20;1.00;;;;;;5014691;28;20029;-61
2022/12/21 13:25:13;;;;;;;24.05;16.58;;;11.20;1.00;;;;;;5014177;28;20029;-61
2022/12/21 13:27:53;;;;;;;19.67;14.98;;;11.20;1.00;;;;;;5014649;28;20034;-61
2022/12/21 13:30:20;;;;;;;20.00;17.50;;;11.20;1.00;;;;;;5014107;28;20032;-61
2022/12/21 13:32:53;;;;;;;21.05;16.40;;;11.10;1.00;;;;;;5014876;28;20049;-61
2022/12/21 13:35:34;;;;;;;20.98;17.05;;;11.10;1.00;;;;;;5014470;28;20057;-61
2022/12/21 13:38:11;;;;;;;21.67;17.67;;;11.20;1.00;;;;;;5014488;28;20028;-61
2022/12/21 13:40:45;;;;;;;19.88;17.23;;;11.20;1.00;;;;;;5014130;28;20489;-62